sensor_id;sensor_type;location;lat;lon;timestamp;P1;durP1;ratioP1;P2;durP2;ratioP2
2177;SDS011;1095;50.992;6.798;2023-03-01T00:02:26;16.50;;;11.65;;
2177;SDS011;1095;50.992;6.798;2023-03-01T00:04:52;21.58;;;12.25;;
2177;SDS011;1095;50.992;6.798;2023-03-01T00:07:20;17.15;;;12.32;;
2177;SDS011;1095;50.992;6.798;2023-03-01T00:09:47;17.00;;;11.23;;
2177;SDS011;1095;50.992;6.798;2023-03-01T00:12:14;18.63;;;12.00;;
2177;SDS011;1095;50.992;6.798;2023-03-01T00:14:41;17.50;;;12.55;;
2177;SDS011;1095;50.992;6.798;2023-03-01T00:17:07;18.48;;;12.52;;
2177;SDS011;1095;50.992;6.798;2023-03-01T00:19:34;19.52;;;12.45;;
2177;SDS011;1095;50.992;6.798;2023-03-01T00:22:01;20.83;;;13.18;;
2177;SDS011;1095;50.992;6.798;2023-03-01T00:24:29;17.25;;;12.10;;
2177;SDS011;1095;50.992;6.798;2023-03-01T00:26:56;19.42;;;12.48;;
2177;SDS011;1095;50.992;6.798;2023-03-01T00:29:23;16.55;;;11.93;;
2177;SDS011;1095;50.992;6.798;2023-03-01T00:31:49;20.08;;;13.05;;
2177;SDS011;1095;50.992;6.798;2023-03-01T00:34:16;16.58;;;11.20;;
2177;SDS011;1095;50.992;6.798;2023-03-01T00:36:43;19.67;;;12.43;;
2177;SDS011;1095;50.992;6.798;2023-03-01T00:39:10;20.63;;;12.60;;
2177;SDS011;1095;50.992;6.798;2023-03-01T00:41:40;20.38;;;12.13;;
2177;SDS011;1095;50.992;6.798;2023-03-01T00:44:07;17.45;;;12.32;;
2177;SDS011;1095;50.992;6.798;2023-03-01T00:46:34;20.02;;;13.10;;
2177;SDS011;1095;50.992;6.798;2023-03-01T00:49:00;21.77;;;13.13;;
2177;SDS011;1095;50.992;6.798;2023-03-01T00:51:28;18.25;;;12.32;;
2177;SDS011;1095;50.992;6.798;2023-03-01T00:53:55;19.58;;;12.45;;
2177;SDS011;1095;50.992;6.798;2023-03-01T00:56:23;19.58;;;13.15;;
2177;SDS011;1095;50.992;6.798;2023-03-01T00:58:51;21.08;;;14.05;;
2177;SDS011;1095;50.992;6.798;2023-03-01T01:01:19;21.67;;;13.82;;
2177;SDS011;1095;50.992;6.798;2023-03-01T01:03:46;22.55;;;12.73;;
2177;SDS011;1095;50.992;6.798;2023-03-01T01:06:16;21.75;;;13.68;;
2177;SDS011;1095;50.992;6.798;2023-03-01T01:08:43;20.42;;;14.25;;
2177;SDS011;1095;50.992;6.798;2023-03-01T01:11:11;19.80;;;13.70;;
2177;SDS011;1095;50.992;6.798;2023-03-01T01:13:38;22.20;;;14.38;;
2177;SDS011;1095;50.992;6.798;2023-03-01T01:16:07;23.00;;;13.90;;
2177;SDS011;1095;50.992;6.798;2023-03-01T01:18:34;23.70;;;14.43;;
2177;SDS011;1095;50.992;6.798;2023-03-01T01:21:05;25.50;;;15.32;;
2177;SDS011;1095;50.992;6.798;2023-03-01T01:23:33;21.50;;;14.75;;
2177;SDS011;1095;50.992;6.798;2023-03-01T01:26:03;21.98;;;13.65;;
2177;SDS011;1095;50.992;6.798;2023-03-01T01:28:30;19.50;;;13.23;;
2177;SDS011;1095;50.992;6.798;2023-03-01T01:30:57;20.48;;;13.80;;
2177;SDS011;1095;50.992;6.798;2023-03-01T01:33:25;21.85;;;13.73;;
2177;SDS011;1095;50.992;6.798;2023-03-01T01:35:52;20.00;;;13.02;;
2177;SDS011;1095;50.992;6.798;2023-03-01T01:38:19;22.17;;;13.23;;
2177;SDS011;1095;50.992;6.798;2023-03-01T01:40:47;21.58;;;13.68;;
2177;SDS011;1095;50.992;6.798;2023-03-01T01:43:16;21.48;;;13.48;;
2177;SDS011;1095;50.992;6.798;2023-03-01T01:45:46;19.70;;;12.73;;
2177;SDS011;1095;50.992;6.798;2023-03-01T01:48:13;21.75;;;13.77;;
2177;SDS011;1095;50.992;6.798;2023-03-01T01:50:45;21.05;;;13.65;;
2177;SDS011;1095;50.992;6.798;2023-03-01T01:53:21;20.58;;;12.98;;
2177;SDS011;1095;50.992;6.798;2023-03-01T01:55:48;21.60;;;13.43;;
2177;SDS011;1095;50.992;6.798;2023-03-01T01:58:20;21.27;;;13.27;;
2177;SDS011;1095;50.992;6.798;2023-03-01T02:00:48;20.00;;;12.93;;
2177;SDS011;1095;50.992;6.798;2023-03-01T02:03:17;21.65;;;13.93;;
2177;SDS011;1095;50.992;6.798;2023-03-01T02:05:49;23.63;;;13.50;;
2177;SDS011;1095;50.992;6.798;2023-03-01T02:08:21;18.65;;;13.05;;
2177;SDS011;1095;50.992;6.798;2023-03-01T02:10:51;18.45;;;13.32;;
2177;SDS011;1095;50.992;6.798;2023-03-01T02:13:21;22.00;;;13.85;;
2177;SDS011;1095;50.992;6.798;2023-03-01T02:15:47;20.33;;;13.85;;
2177;SDS011;1095;50.992;6.798;2023-03-01T02:18:16;21.65;;;13.38;;
2177;SDS011;1095;50.992;6.798;2023-03-01T02:20:50;19.90;;;13.45;;
2177;SDS011;1095;50.992;6.798;2023-03-01T02:25:57;22.88;;;13.90;;
2177;SDS011;1095;50.992;6.798;2023-03-01T02:28:34;21.52;;;13.93;;
2177;SDS011;1095;50.992;6.798;2023-03-01T02:31:03;24.92;;;14.23;;
2177;SDS011;1095;50.992;6.798;2023-03-01T02:33:49;25.15;;;14.48;;
2177;SDS011;1095;50.992;6.798;2023-03-01T02:36:17;21.25;;;13.85;;
2177;SDS011;1095;50.992;6.798;2023-03-01T02:38:48;20.55;;;13.88;;
2177;SDS011;1095;50.992;6.798;2023-03-01T02:41:17;21.92;;;13.63;;
2177;SDS011;1095;50.992;6.798;2023-03-01T02:43:47;22.65;;;13.88;;
2177;SDS011;1095;50.992;6.798;2023-03-01T02:46:15;21.27;;;13.55;;
2177;SDS011;1095;50.992;6.798;2023-03-01T02:48:44;21.17;;;13.60;;
2177;SDS011;1095;50.992;6.798;2023-03-01T02:51:18;19.05;;;12.95;;
2177;SDS011;1095;50.992;6.798;2023-03-01T02:53:55;23.88;;;13.73;;
2177;SDS011;1095;50.992;6.798;2023-03-01T02:56:31;21.05;;;13.18;;
2177;SDS011;1095;50.992;6.798;2023-03-01T02:58:59;20.48;;;12.60;;
2177;SDS011;1095;50.992;6.798;2023-03-01T03:01:27;19.00;;;12.48;;
2177;SDS011;1095;50.992;6.798;2023-03-01T03:04:01;20.63;;;12.80;;
2177;SDS011;1095;50.992;6.798;2023-03-01T03:06:29;18.20;;;12.77;;
2177;SDS011;1095;50.992;6.798;2023-03-01T03:08:56;18.58;;;12.90;;
2177;SDS011;1095;50.992;6.798;2023-03-01T03:11:22;20.58;;;13.07;;
2177;SDS011;1095;50.992;6.798;2023-03-01T03:13:49;20.30;;;13.55;;
2177;SDS011;1095;50.992;6.798;2023-03-01T03:16:18;22.40;;;13.63;;
2177;SDS011;1095;50.992;6.798;2023-03-01T03:18:45;21.55;;;13.10;;
2177;SDS011;1095;50.992;6.798;2023-03-01T03:21:12;22.08;;;13.88;;
2177;SDS011;1095;50.992;6.798;2023-03-01T03:23:39;21.63;;;13.60;;
2177;SDS011;1095;50.992;6.798;2023-03-01T03:26:06;21.90;;;13.70;;
2177;SDS011;1095;50.992;6.798;2023-03-01T03:28:33;19.40;;;12.40;;
2177;SDS011;1095;50.992;6.798;2023-03-01T03:31:05;24.33;;;14.60;;
2177;SDS011;1095;50.992;6.798;2023-03-01T03:33:34;26.80;;;14.32;;
2177;SDS011;1095;50.992;6.798;2023-03-01T03:36:00;28.45;;;15.75;;
2177;SDS011;1095;50.992;6.798;2023-03-01T03:38:27;21.70;;;14.35;;
2177;SDS011;1095;50.992;6.798;2023-03-01T03:40:59;24.08;;;14.52;;
2177;SDS011;1095;50.992;6.798;2023-03-01T03:43:27;22.15;;;13.77;;
2177;SDS011;1095;50.992;6.798;2023-03-01T03:45:54;22.10;;;13.88;;
2177;SDS011;1095;50.992;6.798;2023-03-01T03:48:22;23.23;;;14.68;;
2177;SDS011;1095;50.992;6.798;2023-03-01T03:50:51;23.13;;;14.77;;
2177;SDS011;1095;50.992;6.798;2023-03-01T03:53:20;24.17;;;14.45;;
2177;SDS011;1095;50.992;6.798;2023-03-01T03:55:47;24.17;;;14.77;;
2177;SDS011;1095;50.992;6.798;2023-03-01T03:58:16;25.23;;;14.82;;
2177;SDS011;1095;50.992;6.798;2023-03-01T04:00:44;22.15;;;14.38;;
2177;SDS011;1095;50.992;6.798;2023-03-01T04:03:13;22.42;;;14.30;;
2177;SDS011;1095;50.992;6.798;2023-03-01T04:05:42;22.58;;;14.95;;
2177;SDS011;1095;50.992;6.798;2023-03-01T04:08:10;25.27;;;15.43;;
2177;SDS011;1095;50.992;6.798;2023-03-01T04:10:38;24.10;;;14.10;;
2177;SDS011;1095;50.992;6.798;2023-03-01T04:13:06;23.38;;;15.02;;
2177;SDS011;1095;50.992;6.798;2023-03-01T04:15:35;24.48;;;15.23;;
2177;SDS011;1095;50.992;6.798;2023-03-01T04:18:02;21.52;;;14.88;;
2177;SDS011;1095;50.992;6.798;2023-03-01T04:20:30;25.20;;;14.65;;
2177;SDS011;1095;50.992;6.798;2023-03-01T04:23:00;23.20;;;14.73;;
2177;SDS011;1095;50.992;6.798;2023-03-01T04:25:38;24.98;;;14.70;;
2177;SDS011;1095;50.992;6.798;2023-03-01T04:28:05;25.13;;;15.05;;
2177;SDS011;1095;50.992;6.798;2023-03-01T04:30:32;25.02;;;14.43;;
2177;SDS011;1095;50.992;6.798;2023-03-01T04:33:01;23.65;;;14.65;;
2177;SDS011;1095;50.992;6.798;2023-03-01T04:35:29;21.20;;;14.00;;
2177;SDS011;1095;50.992;6.798;2023-03-01T04:37:56;23.00;;;14.77;;
2177;SDS011;1095;50.992;6.798;2023-03-01T04:40:22;22.95;;;14.75;;
2177;SDS011;1095;50.992;6.798;2023-03-01T04:42:50;24.83;;;16.02;;
2177;SDS011;1095;50.992;6.798;2023-03-01T04:45:20;25.63;;;15.20;;
2177;SDS011;1095;50.992;6.798;2023-03-01T04:47:47;22.98;;;14.55;;
2177;SDS011;1095;50.992;6.798;2023-03-01T04:50:14;23.15;;;15.05;;
2177;SDS011;1095;50.992;6.798;2023-03-01T04:52:45;26.95;;;14.98;;
2177;SDS011;1095;50.992;6.798;2023-03-01T04:55:13;23.60;;;14.80;;
2177;SDS011;1095;50.992;6.798;2023-03-01T04:57:40;29.55;;;15.43;;
2177;SDS011;1095;50.992;6.798;2023-03-01T05:00:09;23.80;;;15.00;;
2177;SDS011;1095;50.992;6.798;2023-03-01T05:02:46;27.52;;;16.25;;
2177;SDS011;1095;50.992;6.798;2023-03-01T05:05:18;26.55;;;15.38;;
2177;SDS011;1095;50.992;6.798;2023-03-01T05:07:45;26.58;;;16.02;;
2177;SDS011;1095;50.992;6.798;2023-03-01T05:10:12;26.17;;;16.65;;
2177;SDS011;1095;50.992;6.798;2023-03-01T05:12:38;24.73;;;15.02;;
2177;SDS011;1095;50.992;6.798;2023-03-01T05:15:07;24.10;;;15.43;;
2177;SDS011;1095;50.992;6.798;2023-03-01T05:17:35;29.30;;;16.02;;
2177;SDS011;1095;50.992;6.798;2023-03-01T05:20:02;32.25;;;17.05;;
2177;SDS011;1095;50.992;6.798;2023-03-01T05:22:32;28.70;;;16.25;;
2177;SDS011;1095;50.992;6.798;2023-03-01T05:24:59;22.60;;;15.18;;
2177;SDS011;1095;50.992;6.798;2023-03-01T05:27:26;24.15;;;15.45;;
2177;SDS011;1095;50.992;6.798;2023-03-01T05:29:52;31.02;;;15.98;;
2177;SDS011;1095;50.992;6.798;2023-03-01T05:32:20;25.38;;;16.25;;
2177;SDS011;1095;50.992;6.798;2023-03-01T05:34:47;22.73;;;15.32;;
2177;SDS011;1095;50.992;6.798;2023-03-01T05:37:14;23.48;;;14.68;;
2177;SDS011;1095;50.992;6.798;2023-03-01T05:39:40;24.63;;;14.98;;
2177;SDS011;1095;50.992;6.798;2023-03-01T05:42:09;24.15;;;15.38;;
2177;SDS011;1095;50.992;6.798;2023-03-01T05:44:37;23.13;;;14.68;;
2177;SDS011;1095;50.992;6.798;2023-03-01T05:47:03;25.23;;;15.05;;
2177;SDS011;1095;50.992;6.798;2023-03-01T05:49:32;31.58;;;16.13;;
2177;SDS011;1095;50.992;6.798;2023-03-01T05:51:59;21.92;;;14.70;;
2177;SDS011;1095;50.992;6.798;2023-03-01T05:54:26;24.75;;;15.57;;
2177;SDS011;1095;50.992;6.798;2023-03-01T05:56:52;29.88;;;16.40;;
2177;SDS011;1095;50.992;6.798;2023-03-01T05:59:19;24.48;;;15.60;;
2177;SDS011;1095;50.992;6.798;2023-03-01T06:01:46;27.13;;;16.00;;
2177;SDS011;1095;50.992;6.798;2023-03-01T06:04:12;26.27;;;15.82;;
2177;SDS011;1095;50.992;6.798;2023-03-01T06:06:40;28.80;;;16.40;;
2177;SDS011;1095;50.992;6.798;2023-03-01T06:09:07;27.60;;;15.77;;
2177;SDS011;1095;50.992;6.798;2023-03-01T06:11:35;36.35;;;15.80;;
2177;SDS011;1095;50.992;6.798;2023-03-01T06:14:02;34.53;;;16.67;;
2177;SDS011;1095;50.992;6.798;2023-03-01T06:16:29;33.38;;;17.33;;
2177;SDS011;1095;50.992;6.798;2023-03-01T06:18:55;33.88;;;17.95;;
2177;SDS011;1095;50.992;6.798;2023-03-01T06:21:22;30.00;;;17.35;;
2177;SDS011;1095;50.992;6.798;2023-03-01T06:23:50;27.08;;;15.43;;
2177;SDS011;1095;50.992;6.798;2023-03-01T06:26:16;35.72;;;16.52;;
2177;SDS011;1095;50.992;6.798;2023-03-01T06:28:43;32.38;;;17.05;;
2177;SDS011;1095;50.992;6.798;2023-03-01T06:31:11;31.63;;;16.92;;
2177;SDS011;1095;50.992;6.798;2023-03-01T06:33:37;32.47;;;17.10;;
2177;SDS011;1095;50.992;6.798;2023-03-01T06:36:04;42.95;;;19.48;;
2177;SDS011;1095;50.992;6.798;2023-03-01T06:38:31;46.08;;;20.63;;
2177;SDS011;1095;50.992;6.798;2023-03-01T06:40:59;47.55;;;21.95;;
2177;SDS011;1095;50.992;6.798;2023-03-01T06:43:26;45.45;;;21.63;;
2177;SDS011;1095;50.992;6.798;2023-03-01T06:45:52;44.97;;;19.77;;
2177;SDS011;1095;50.992;6.798;2023-03-01T06:48:19;45.38;;;21.90;;
2177;SDS011;1095;50.992;6.798;2023-03-01T06:50:46;51.90;;;22.70;;
2177;SDS011;1095;50.992;6.798;2023-03-01T06:53:12;48.70;;;23.30;;
2177;SDS011;1095;50.992;6.798;2023-03-01T06:55:39;42.85;;;22.70;;
2177;SDS011;1095;50.992;6.798;2023-03-01T06:58:07;42.85;;;21.90;;
2177;SDS011;1095;50.992;6.798;2023-03-01T07:00:35;36.33;;;21.10;;
2177;SDS011;1095;50.992;6.798;2023-03-01T07:03:01;32.47;;;19.80;;
2177;SDS011;1095;50.992;6.798;2023-03-01T07:05:28;29.67;;;20.00;;
2177;SDS011;1095;50.992;6.798;2023-03-01T07:07:55;27.90;;;17.90;;
2177;SDS011;1095;50.992;6.798;2023-03-01T07:10:22;29.30;;;18.13;;
2177;SDS011;1095;50.992;6.798;2023-03-01T07:12:48;34.72;;;19.58;;
2177;SDS011;1095;50.992;6.798;2023-03-01T07:15:16;33.30;;;18.50;;
2177;SDS011;1095;50.992;6.798;2023-03-01T07:17:43;43.08;;;21.23;;
2177;SDS011;1095;50.992;6.798;2023-03-01T07:20:12;31.75;;;18.17;;
2177;SDS011;1095;50.992;6.798;2023-03-01T07:22:39;27.42;;;18.00;;
2177;SDS011;1095;50.992;6.798;2023-03-01T07:25:07;24.80;;;14.50;;
2177;SDS011;1095;50.992;6.798;2023-03-01T07:27:34;23.40;;;14.50;;
2177;SDS011;1095;50.992;6.798;2023-03-01T07:30:01;23.77;;;14.95;;
2177;SDS011;1095;50.992;6.798;2023-03-01T07:32:29;23.85;;;14.40;;
2177;SDS011;1095;50.992;6.798;2023-03-01T07:34:55;25.55;;;14.13;;
2177;SDS011;1095;50.992;6.798;2023-03-01T07:37:22;17.60;;;13.27;;
2177;SDS011;1095;50.992;6.798;2023-03-01T07:39:49;26.60;;;14.10;;
2177;SDS011;1095;50.992;6.798;2023-03-01T07:42:15;19.27;;;13.70;;
2177;SDS011;1095;50.992;6.798;2023-03-01T07:44:42;21.08;;;13.95;;
2177;SDS011;1095;50.992;6.798;2023-03-01T07:47:08;20.38;;;14.30;;
2177;SDS011;1095;50.992;6.798;2023-03-01T07:49:36;18.38;;;13.57;;
2177;SDS011;1095;50.992;6.798;2023-03-01T07:52:03;22.25;;;14.32;;
2177;SDS011;1095;50.992;6.798;2023-03-01T07:54:30;18.10;;;14.85;;
2177;SDS011;1095;50.992;6.798;2023-03-01T07:56:57;20.63;;;14.10;;
2177;SDS011;1095;50.992;6.798;2023-03-01T07:59:23;21.48;;;14.98;;
2177;SDS011;1095;50.992;6.798;2023-03-01T08:05:52;21.00;;;14.90;;
2177;SDS011;1095;50.992;6.798;2023-03-01T08:08:19;20.42;;;14.63;;
2177;SDS011;1095;50.992;6.798;2023-03-01T08:10:46;23.35;;;16.02;;
2177;SDS011;1095;50.992;6.798;2023-03-01T08:13:12;21.60;;;15.77;;
2177;SDS011;1095;50.992;6.798;2023-03-01T08:15:39;21.63;;;16.02;;
2177;SDS011;1095;50.992;6.798;2023-03-01T08:18:06;21.63;;;15.77;;
2177;SDS011;1095;50.992;6.798;2023-03-01T08:20:32;22.52;;;16.08;;
2177;SDS011;1095;50.992;6.798;2023-03-01T08:23:00;22.65;;;16.15;;
2177;SDS011;1095;50.992;6.798;2023-03-01T08:25:27;20.77;;;15.82;;
2177;SDS011;1095;50.992;6.798;2023-03-01T08:27:59;24.48;;;16.58;;
2177;SDS011;1095;50.992;6.798;2023-03-01T08:31:18;21.65;;;15.73;;
2177;SDS011;1095;50.992;6.798;2023-03-01T08:33:59;22.48;;;15.82;;
2177;SDS011;1095;50.992;6.798;2023-03-01T08:36:28;22.70;;;15.65;;
2177;SDS011;1095;50.992;6.798;2023-03-01T08:38:57;26.77;;;16.73;;
2177;SDS011;1095;50.992;6.798;2023-03-01T08:41:24;23.50;;;16.02;;
2177;SDS011;1095;50.992;6.798;2023-03-01T08:43:55;28.17;;;16.85;;
2177;SDS011;1095;50.992;6.798;2023-03-01T08:49:49;25.13;;;15.60;;
2177;SDS011;1095;50.992;6.798;2023-03-01T09:05:23;23.55;;;15.68;;
2177;SDS011;1095;50.992;6.798;2023-03-01T09:07:50;22.23;;;16.90;;
2177;SDS011;1095;50.992;6.798;2023-03-01T09:10:16;23.58;;;14.98;;
2177;SDS011;1095;50.992;6.798;2023-03-01T09:12:45;23.10;;;16.58;;
2177;SDS011;1095;50.992;6.798;2023-03-01T09:15:11;24.15;;;16.50;;
2177;SDS011;1095;50.992;6.798;2023-03-01T09:17:38;42.08;;;18.23;;
2177;SDS011;1095;50.992;6.798;2023-03-01T09:20:05;26.67;;;16.85;;
2177;SDS011;1095;50.992;6.798;2023-03-01T09:22:32;25.70;;;17.33;;
2177;SDS011;1095;50.992;6.798;2023-03-01T09:24:59;24.92;;;16.67;;
2177;SDS011;1095;50.992;6.798;2023-03-01T09:27:26;24.70;;;17.08;;
2177;SDS011;1095;50.992;6.798;2023-03-01T09:29:54;23.45;;;16.67;;
2177;SDS011;1095;50.992;6.798;2023-03-01T09:32:22;26.88;;;16.73;;
2177;SDS011;1095;50.992;6.798;2023-03-01T09:34:48;29.38;;;16.25;;
2177;SDS011;1095;50.992;6.798;2023-03-01T09:37:29;26.52;;;16.13;;
2177;SDS011;1095;50.992;6.798;2023-03-01T09:39:57;23.77;;;15.48;;
2177;SDS011;1095;50.992;6.798;2023-03-01T09:42:24;21.70;;;12.50;;
2177;SDS011;1095;50.992;6.798;2023-03-01T09:44:52;21.98;;;13.38;;
2177;SDS011;1095;50.992;6.798;2023-03-01T09:47:24;21.23;;;13.63;;
2177;SDS011;1095;50.992;6.798;2023-03-01T09:49:58;20.92;;;13.38;;
2177;SDS011;1095;50.992;6.798;2023-03-01T09:52:33;19.48;;;13.20;;
2177;SDS011;1095;50.992;6.798;2023-03-01T09:55:08;17.95;;;13.00;;
2177;SDS011;1095;50.992;6.798;2023-03-01T09:57:39;18.47;;;12.60;;
2177;SDS011;1095;50.992;6.798;2023-03-01T10:03:07;20.77;;;12.63;;
2177;SDS011;1095;50.992;6.798;2023-03-01T10:05:44;19.02;;;12.32;;
2177;SDS011;1095;50.992;6.798;2023-03-01T10:11:04;24.83;;;13.23;;
2177;SDS011;1095;50.992;6.798;2023-03-01T10:13:33;19.65;;;13.50;;
2177;SDS011;1095;50.992;6.798;2023-03-01T10:16:11;22.90;;;13.48;;
2177;SDS011;1095;50.992;6.798;2023-03-01T10:18:42;18.20;;;11.85;;
2177;SDS011;1095;50.992;6.798;2023-03-01T10:21:14;18.30;;;12.93;;
2177;SDS011;1095;50.992;6.798;2023-03-01T10:23:43;20.45;;;13.00;;
2177;SDS011;1095;50.992;6.798;2023-03-01T10:26:26;22.63;;;13.43;;
2177;SDS011;1095;50.992;6.798;2023-03-01T10:29:08;18.95;;;12.73;;
2177;SDS011;1095;50.992;6.798;2023-03-01T10:31:39;19.20;;;13.07;;
2177;SDS011;1095;50.992;6.798;2023-03-01T10:34:13;17.60;;;12.27;;
2177;SDS011;1095;50.992;6.798;2023-03-01T10:36:42;19.92;;;12.90;;
2177;SDS011;1095;50.992;6.798;2023-03-01T10:39:12;18.45;;;12.70;;
2177;SDS011;1095;50.992;6.798;2023-03-01T10:41:51;17.38;;;12.48;;
2177;SDS011;1095;50.992;6.798;2023-03-01T10:44:40;18.03;;;12.40;;
2177;SDS011;1095;50.992;6.798;2023-03-01T10:47:14;19.70;;;12.75;;
2177;SDS011;1095;50.992;6.798;2023-03-01T10:49:52;18.88;;;12.90;;
2177;SDS011;1095;50.992;6.798;2023-03-01T10:52:21;17.67;;;12.43;;
2177;SDS011;1095;50.992;6.798;2023-03-01T10:54:52;18.23;;;12.60;;
2177;SDS011;1095;50.992;6.798;2023-03-01T11:00:15;20.92;;;12.50;;
2177;SDS011;1095;50.992;6.798;2023-03-01T11:02:48;21.33;;;12.88;;
2177;SDS011;1095;50.992;6.798;2023-03-01T11:05:18;19.58;;;13.25;;
2177;SDS011;1095;50.992;6.798;2023-03-01T11:07:49;18.35;;;12.73;;
2177;SDS011;1095;50.992;6.798;2023-03-01T11:10:18;20.40;;;13.23;;
2177;SDS011;1095;50.992;6.798;2023-03-01T11:12:46;19.02;;;13.07;;
2177;SDS011;1095;50.992;6.798;2023-03-01T11:15:21;19.27;;;13.38;;
2177;SDS011;1095;50.992;6.798;2023-03-01T11:17:52;17.90;;;12.70;;
2177;SDS011;1095;50.992;6.798;2023-03-01T11:20:23;18.63;;;12.40;;
2177;SDS011;1095;50.992;6.798;2023-03-01T11:22:53;17.75;;;12.35;;
2177;SDS011;1095;50.992;6.798;2023-03-01T11:25:23;16.75;;;12.07;;
2177;SDS011;1095;50.992;6.798;2023-03-01T11:27:53;18.08;;;12.30;;
2177;SDS011;1095;50.992;6.798;2023-03-01T11:30:20;19.75;;;12.85;;
2177;SDS011;1095;50.992;6.798;2023-03-01T11:32:53;17.38;;;12.50;;
2177;SDS011;1095;50.992;6.798;2023-03-01T11:35:27;19.45;;;12.82;;
2177;SDS011;1095;50.992;6.798;2023-03-01T11:37:59;19.48;;;13.38;;
2177;SDS011;1095;50.992;6.798;2023-03-01T11:40:39;19.63;;;13.75;;
2177;SDS011;1095;50.992;6.798;2023-03-01T11:43:14;19.35;;;13.38;;
2177;SDS011;1095;50.992;6.798;2023-03-01T11:45:48;25.10;;;14.15;;
2177;SDS011;1095;50.992;6.798;2023-03-01T11:48:38;21.65;;;13.13;;
2177;SDS011;1095;50.992;6.798;2023-03-01T11:51:15;17.63;;;12.70;;
2177;SDS011;1095;50.992;6.798;2023-03-01T11:53:54;18.42;;;12.43;;
2177;SDS011;1095;50.992;6.798;2023-03-01T11:56:31;17.25;;;12.32;;
2177;SDS011;1095;50.992;6.798;2023-03-01T11:59:03;21.10;;;13.55;;
2177;SDS011;1095;50.992;6.798;2023-03-01T12:01:48;21.35;;;13.43;;
2177;SDS011;1095;50.992;6.798;2023-03-01T12:04:46;21.13;;;13.45;;
2177;SDS011;1095;50.992;6.798;2023-03-01T12:07:30;21.42;;;13.48;;
2177;SDS011;1095;50.992;6.798;2023-03-01T12:10:19;29.20;;;13.52;;
2177;SDS011;1095;50.992;6.798;2023-03-01T12:12:54;19.83;;;12.00;;
2177;SDS011;1095;50.992;6.798;2023-03-01T12:18:46;20.15;;;13.18;;
2177;SDS011;1095;50.992;6.798;2023-03-01T12:24:12;21.98;;;12.00;;
2177;SDS011;1095;50.992;6.798;2023-03-01T12:27:00;17.83;;;11.95;;
2177;SDS011;1095;50.992;6.798;2023-03-01T12:29:39;19.58;;;13.15;;
2177;SDS011;1095;50.992;6.798;2023-03-01T12:32:21;24.63;;;12.27;;
2177;SDS011;1095;50.992;6.798;2023-03-01T12:37:54;16.40;;;11.75;;
2177;SDS011;1095;50.992;6.798;2023-03-01T12:40:29;18.05;;;12.43;;
2177;SDS011;1095;50.992;6.798;2023-03-01T12:43:07;15.77;;;11.57;;
2177;SDS011;1095;50.992;6.798;2023-03-01T12:46:00;18.77;;;12.48;;
2177;SDS011;1095;50.992;6.798;2023-03-01T12:51:10;18.35;;;12.05;;
2177;SDS011;1095;50.992;6.798;2023-03-01T12:53:43;19.13;;;13.05;;
2177;SDS011;1095;50.992;6.798;2023-03-01T12:56:15;20.88;;;13.57;;
2177;SDS011;1095;50.992;6.798;2023-03-01T12:58:46;19.70;;;13.98;;
2177;SDS011;1095;50.992;6.798;2023-03-01T13:01:22;24.25;;;13.23;;
2177;SDS011;1095;50.992;6.798;2023-03-01T13:04:02;17.85;;;12.07;;
2177;SDS011;1095;50.992;6.798;2023-03-01T13:06:39;18.35;;;12.70;;
2177;SDS011;1095;50.992;6.798;2023-03-01T13:11:44;33.47;;;13.40;;
2177;SDS011;1095;50.992;6.798;2023-03-01T13:17:39;22.55;;;14.88;;
2177;SDS011;1095;50.992;6.798;2023-03-01T13:20:12;22.33;;;13.27;;
2177;SDS011;1095;50.992;6.798;2023-03-01T13:22:41;20.35;;;14.43;;
2177;SDS011;1095;50.992;6.798;2023-03-01T13:25:16;20.67;;;14.15;;
2177;SDS011;1095;50.992;6.798;2023-03-01T13:27:44;20.38;;;13.65;;
2177;SDS011;1095;50.992;6.798;2023-03-01T13:36:06;20.88;;;14.20;;
2177;SDS011;1095;50.992;6.798;2023-03-01T13:38:36;23.38;;;13.98;;
2177;SDS011;1095;50.992;6.798;2023-03-01T13:41:06;36.90;;;15.40;;
2177;SDS011;1095;50.992;6.798;2023-03-01T13:43:40;24.23;;;14.57;;
2177;SDS011;1095;50.992;6.798;2023-03-01T13:48:43;21.65;;;13.73;;
2177;SDS011;1095;50.992;6.798;2023-03-01T13:51:11;20.65;;;14.10;;
2177;SDS011;1095;50.992;6.798;2023-03-01T13:53:40;20.55;;;13.40;;
2177;SDS011;1095;50.992;6.798;2023-03-01T13:56:14;19.23;;;13.25;;
2177;SDS011;1095;50.992;6.798;2023-03-01T13:58:46;23.10;;;13.93;;
2177;SDS011;1095;50.992;6.798;2023-03-01T14:01:26;20.05;;;12.40;;
2177;SDS011;1095;50.992;6.798;2023-03-01T14:03:55;21.45;;;13.02;;
2177;SDS011;1095;50.992;6.798;2023-03-01T14:06:23;18.85;;;12.18;;
2177;SDS011;1095;50.992;6.798;2023-03-01T14:09:00;20.73;;;12.82;;
2177;SDS011;1095;50.992;6.798;2023-03-01T14:11:54;24.95;;;12.32;;
2177;SDS011;1095;50.992;6.798;2023-03-01T14:14:39;17.55;;;11.30;;
2177;SDS011;1095;50.992;6.798;2023-03-01T14:17:14;15.18;;;11.57;;
2177;SDS011;1095;50.992;6.798;2023-03-01T14:19:54;17.92;;;10.95;;
2177;SDS011;1095;50.992;6.798;2023-03-01T14:22:22;18.75;;;12.75;;
2177;SDS011;1095;50.992;6.798;2023-03-01T14:24:53;15.07;;;11.40;;
2177;SDS011;1095;50.992;6.798;2023-03-01T14:27:23;17.67;;;11.35;;
2177;SDS011;1095;50.992;6.798;2023-03-01T14:29:56;18.83;;;11.70;;
2177;SDS011;1095;50.992;6.798;2023-03-01T14:32:27;18.92;;;11.82;;
2177;SDS011;1095;50.992;6.798;2023-03-01T14:34:56;17.02;;;11.70;;
2177;SDS011;1095;50.992;6.798;2023-03-01T14:37:24;17.92;;;11.30;;
2177;SDS011;1095;50.992;6.798;2023-03-01T14:39:53;21.25;;;12.00;;
2177;SDS011;1095;50.992;6.798;2023-03-01T14:42:27;24.52;;;12.55;;
2177;SDS011;1095;50.992;6.798;2023-03-01T14:44:55;17.60;;;11.25;;
2177;SDS011;1095;50.992;6.798;2023-03-01T14:47:26;19.27;;;11.25;;
2177;SDS011;1095;50.992;6.798;2023-03-01T14:49:56;32.85;;;12.20;;
2177;SDS011;1095;50.992;6.798;2023-03-01T14:52:27;17.77;;;10.63;;
2177;SDS011;1095;50.992;6.798;2023-03-01T14:54:59;15.80;;;11.82;;
2177;SDS011;1095;50.992;6.798;2023-03-01T14:57:29;26.67;;;12.50;;
2177;SDS011;1095;50.992;6.798;2023-03-01T14:59:57;19.75;;;11.55;;
2177;SDS011;1095;50.992;6.798;2023-03-01T15:02:26;17.02;;;11.07;;
2177;SDS011;1095;50.992;6.798;2023-03-01T15:04:55;20.25;;;11.63;;
2177;SDS011;1095;50.992;6.798;2023-03-01T15:07:26;15.90;;;11.02;;
2177;SDS011;1095;50.992;6.798;2023-03-01T15:09:56;20.00;;;11.60;;
2177;SDS011;1095;50.992;6.798;2023-03-01T15:12:25;23.58;;;11.88;;
2177;SDS011;1095;50.992;6.798;2023-03-01T15:15:18;27.65;;;11.80;;
2177;SDS011;1095;50.992;6.798;2023-03-01T15:17:48;19.58;;;11.52;;
2177;SDS011;1095;50.992;6.798;2023-03-01T15:20:20;23.55;;;11.48;;
2177;SDS011;1095;50.992;6.798;2023-03-01T15:22:50;24.52;;;11.25;;
2177;SDS011;1095;50.992;6.798;2023-03-01T15:25:18;22.92;;;11.10;;
2177;SDS011;1095;50.992;6.798;2023-03-01T15:27:47;18.42;;;11.25;;
2177;SDS011;1095;50.992;6.798;2023-03-01T15:30:17;18.40;;;11.18;;
2177;SDS011;1095;50.992;6.798;2023-03-01T15:32:46;16.88;;;11.00;;
2177;SDS011;1095;50.992;6.798;2023-03-01T15:38:01;24.30;;;11.88;;
2177;SDS011;1095;50.992;6.798;2023-03-01T15:40:29;21.83;;;12.00;;
2177;SDS011;1095;50.992;6.798;2023-03-01T15:42:58;37.65;;;12.32;;
2177;SDS011;1095;50.992;6.798;2023-03-01T15:45:26;29.52;;;11.52;;
2177;SDS011;1095;50.992;6.798;2023-03-01T15:47:55;20.77;;;10.52;;
2177;SDS011;1095;50.992;6.798;2023-03-01T15:50:24;16.67;;;11.38;;
2177;SDS011;1095;50.992;6.798;2023-03-01T15:52:53;14.48;;;10.05;;
2177;SDS011;1095;50.992;6.798;2023-03-01T15:55:21;22.65;;;11.15;;
2177;SDS011;1095;50.992;6.798;2023-03-01T15:57:50;20.50;;;10.23;;
2177;SDS011;1095;50.992;6.798;2023-03-01T16:00:26;19.70;;;10.48;;
2177;SDS011;1095;50.992;6.798;2023-03-01T16:02:53;22.65;;;10.25;;
2177;SDS011;1095;50.992;6.798;2023-03-01T16:05:21;17.48;;;11.02;;
2177;SDS011;1095;50.992;6.798;2023-03-01T16:07:49;19.40;;;11.57;;